Time;durP1;ratioP1;P1;durP2;ratioP2;P2;SDS_P1;SDS_P2;PMS_P1;PMS_P2;Temp;Humidity;BMP_temperature;BMP_pressure;BME280_temperature;BME280_humidity;BME280_pressure;Samples;Min_cycle;Max_cycle;Signal;HPM_P1;HPM_P2
2022/11/06 00:01:32;;;;;;;63.55;29.05;;;;;;;4.75;100.00;101061.67;1755132;81;20993;-66
2022/11/06 00:03:59;;;;;;;54.00;24.75;;;;;;;4.72;100.00;101057.77;1755212;81;21088;-65
2022/11/06 00:09:13;;;;;;;56.20;25.77;;;;;;;4.55;100.00;101059.45;1755445;81;21148;-66
2022/11/06 00:11:41;;;;;;;61.88;27.62;;;;;;;4.51;100.00;101059.00;1755279;81;21077;-67
2022/11/06 00:14:08;;;;;;;61.35;27.52;;;;;;;4.53;100.00;101059.88;1755333;81;21092;-65
2022/11/06 00:16:40;;;;;;;55.30;25.10;;;;;;;4.62;100.00;101053.38;1755063;81;21045;-65
2022/11/06 00:19:07;;;;;;;54.93;25.60;;;;;;;4.57;100.00;101053.81;1755462;81;21052;-66
2022/11/06 00:21:34;;;;;;;56.85;25.48;;;;;;;4.53;100.00;101052.95;1765185;80;21612;-66
2022/11/06 00:24:02;;;;;;;61.23;26.02;;;;;;;4.58;100.00;101049.05;1770298;81;21042;-66
2022/11/06 00:26:30;;;;;;;56.42;26.25;;;;;;;4.65;100.00;101052.10;1770303;81;21081;-65
2022/11/06 00:28:57;;;;;;;53.25;24.15;;;;;;;4.63;100.00;101046.01;1770309;81;20991;-67
2022/11/06 00:31:27;;;;;;;58.08;27.37;;;;;;;4.63;100.00;101053.84;1694865;84;21585;-66
2022/11/06 00:33:55;;;;;;;57.03;25.85;;;;;;;4.66;100.00;101051.22;1723540;83;21226;-64
2022/11/06 00:36:23;;;;;;;55.40;25.27;;;;;;;4.72;100.00;101049.08;1694539;84;21093;-66
2022/11/06 00:38:52;;;;;;;51.40;24.35;;;;;;;4.74;100.00;101052.12;1723628;83;21117;-66
2022/11/06 00:41:20;;;;;;;53.75;24.80;;;;;;;4.73;100.00;101052.97;1694595;83;21656;-67
2022/11/06 00:43:49;;;;;;;56.60;25.40;;;;;;;4.66;100.00;101048.61;1723334;83;21038;-67
2022/11/06 00:46:16;;;;;;;48.50;23.65;;;;;;;4.69;100.00;101043.39;1719133;83;21977;-67
2022/11/06 00:48:42;;;;;;;52.08;23.42;;;;;;;4.65;100.00;101040.77;1718868;83;22187;-66
2022/11/06 00:51:21;;;;;;;56.63;24.95;;;;;;;4.60;100.00;101032.94;1719339;83;21581;-66
2022/11/06 00:53:58;;;;;;;49.25;22.62;;;;;;;4.72;100.00;101038.64;1719092;83;21517;-66
2022/11/06 00:56:25;;;;;;;56.23;26.05;;;;;;;4.53;100.00;101034.69;1719034;83;21066;-65
2022/11/06 00:58:52;;;;;;;56.13;23.87;;;;;;;4.55;100.00;101028.15;1719018;83;21237;-66
2022/11/06 01:01:22;;;;;;;52.33;25.88;;;;;;;4.50;100.00;101026.84;1720969;83;21529;-66
2022/11/06 01:03:58;;;;;;;57.00;25.60;;;;;;;4.54;100.00;101026.42;1723776;83;21066;-66
2022/11/06 01:06:29;;;;;;;56.15;25.32;;;;;;;4.61;100.00;101021.65;1723320;83;21066;-66
2022/11/06 01:08:56;;;;;;;56.53;24.63;;;;;;;4.62;100.00;101022.07;1723419;83;21096;-65
2022/11/06 01:11:27;;;;;;;51.83;24.60;;;;;;;4.57;100.00;101022.50;1723421;83;21265;-65
2022/11/06 01:13:57;;;;;;;49.20;22.52;;;;;;;4.62;100.00;101033.81;1723198;83;21582;-67
2022/11/06 01:16:23;;;;;;;48.45;23.22;;;;;;;4.69;100.00;101032.09;1723453;83;21086;-66
2022/11/06 01:18:50;;;;;;;57.17;25.85;;;;;;;4.65;100.00;101027.72;1723214;83;21085;-65
2022/11/06 01:21:25;;;;;;;56.23;24.85;;;;;;;4.74;100.00;101029.94;1723344;82;21585;-65
2022/11/06 01:23:59;;;;;;;59.93;24.87;;;;;;;4.70;100.00;101033.41;1722078;82;21800;-66
2022/11/06 01:26:27;;;;;;;50.40;23.73;;;;;;;4.69;100.00;101030.34;1723460;83;21105;-66
2022/11/06 01:28:55;;;;;;;54.15;22.70;;;;;;;4.68;100.00;101029.92;1723409;83;21093;-65
2022/11/06 01:31:26;;;;;;;52.88;24.52;;;;;;;4.65;100.00;101031.23;1723548;83;21066;-65
2022/11/06 01:33:54;;;;;;;50.98;23.67;;;;;;;4.51;100.00;101029.90;1723706;83;21576;-66
2022/11/06 01:36:22;;;;;;;49.83;23.25;;;;;;;4.62;100.00;101027.29;1723462;83;21165;-66
2022/11/06 01:38:52;;;;;;;53.48;22.20;;;;;;;4.72;100.00;101023.84;1723529;83;21018;-66
2022/11/06 01:41:23;;;;;;;47.40;23.25;;;;;;;4.57;100.00;101025.11;1723729;83;21065;-65
2022/11/06 01:43:55;;;;;;;52.70;23.60;;;;;;;4.68;100.00;101018.17;1721566;83;21037;-66
2022/11/06 01:46:25;;;;;;;41.68;18.35;;;;;;;4.75;100.00;101021.23;1694555;84;21073;-66
2022/11/06 01:49:09;;;;;;;51.65;23.42;;;;;;;4.74;100.00;101027.33;1694537;84;21916;-66
2022/11/06 01:51:50;;;;;;;44.90;19.92;;;;;;;4.73;100.00;101025.57;1694375;84;21108;-66
2022/11/06 01:54:16;;;;;;;46.55;22.48;;;;;;;4.71;100.00;101023.39;1694531;84;21640;-66
2022/11/06 01:56:44;;;;;;;44.13;21.15;;;;;;;4.67;100.00;101024.28;1694433;84;21050;-66
2022/11/06 01:59:14;;;;;;;47.08;21.15;;;;;;;4.73;100.00;101022.09;1694326;84;21080;-65
2022/11/06 02:01:42;;;;;;;54.42;22.27;;;;;;;4.75;100.00;101027.75;1715018;83;21619;-66
2022/11/06 02:04:16;;;;;;;43.68;21.90;;;;;;;4.69;100.00;101034.25;1723288;83;21684;-66
2022/11/06 02:06:45;;;;;;;44.73;20.37;;;;;;;4.86;100.00;101034.73;1723528;83;21061;-67
2022/11/06 02:09:14;;;;;;;47.93;22.65;;;;;;;4.73;100.00;101026.87;1723616;83;21022;-65
2022/11/06 02:11:44;;;;;;;50.67;21.52;;;;;;;4.72;100.00;101029.06;1723610;83;21095;-66
2022/11/06 02:14:25;;;;;;;45.67;21.95;;;;;;;4.70;100.00;101033.84;1723296;83;21241;-66
2022/11/06 02:17:16;;;;;;;40.95;18.92;;;;;;;4.71;100.00;101031.22;1723435;83;21093;-65
2022/11/06 02:20:01;;;;;;;45.47;21.83;;;;;;;4.76;100.00;101031.22;1708840;83;21525;-66
2022/11/06 02:22:54;;;;;;;46.40;20.85;;;;;;;4.80;100.00;101039.06;1723370;83;21541;-67
2022/11/06 02:25:38;;;;;;;45.92;20.97;;;;;;;4.68;100.00;101039.05;1722589;83;21010;-65
2022/11/06 02:28:22;;;;;;;42.33;20.05;;;;;;;4.66;100.00;101038.17;1704038;83;21114;-66
2022/11/06 02:30:49;;;;;;;46.73;20.20;;;;;;;4.57;100.00;101043.37;1703923;83;21053;-65
2022/11/06 02:33:30;;;;;;;48.20;21.68;;;;;;;4.54;100.00;101043.37;1723576;83;21549;-67
2022/11/06 02:36:05;;;;;;;40.98;18.40;;;;;;;4.60;100.00;101035.55;1723158;83;21525;-65
2022/11/06 02:38:49;;;;;;;39.33;19.23;;;;;;;4.56;100.00;101041.65;1723313;83;21061;-65
2022/11/06 02:41:20;;;;;;;39.85;18.62;;;;;;;4.50;100.00;101043.79;1723544;83;21901;-66
2022/11/06 02:43:51;;;;;;;43.15;19.67;;;;;;;4.52;100.00;101038.59;1722930;83;28182;-67
2022/11/06 02:46:33;;;;;;;;;;;;;;;4.55;100.00;101041.19;1697271;84;21065;-67
2022/11/06 02:49:07;;;;;;;50.78;20.32;;;;;;;4.39;100.00;101036.37;1694484;84;20182;-68
2022/11/06 02:51:39;;;;;;;47.73;21.15;;;;;;;4.38;100.00;101040.72;1695045;84;21072;-66
2022/11/06 02:54:05;;;;;;;42.55;20.57;;;;;;;4.29;100.00;101048.52;1694383;84;21251;-66
2022/11/06 02:56:38;;;;;;;43.45;18.80;;;;;;;4.35;100.00;101047.24;1694303;84;21655;-65
2022/11/06 02:59:09;;;;;;;45.17;20.23;;;;;;;4.43;100.00;101030.30;1694541;84;21132;-65
2022/11/06 03:01:42;;;;;;;;;;;;;;;4.41;100.00;101035.94;1716550;83;21572;-67
2022/11/06 03:04:23;;;;;;;47.70;19.92;;;;;;;4.46;100.00;101028.99;1722321;83;20485;-66
2022/11/06 03:06:55;;;;;;;53.55;20.70;;;;;;;4.43;100.00;101028.13;1723680;83;21270;-66
2022/11/06 03:09:26;;;;;;;47.45;19.05;;;;;;;4.30;100.00;101024.20;1723558;83;21620;-65
2022/11/06 03:12:08;;;;;;;46.85;19.77;;;;;;;4.19;100.00;101031.11;1723820;83;21045;-65
2022/11/06 03:15:12;;;;;;;47.98;20.37;;;;;;;4.22;100.00;101037.63;1723552;83;21068;-65
2022/11/06 03:18:11;;;;;;;53.17;19.92;;;;;;;4.11;100.00;101036.71;1720334;83;21029;-66
2022/11/06 03:21:02;;;;;;;48.02;20.52;;;;;;;4.08;100.00;101041.92;1714696;83;21927;-66
2022/11/06 03:23:43;;;;;;;56.53;20.60;;;;;;;4.22;100.00;101041.54;1719343;83;21079;-66
2022/11/06 03:26:20;;;;;;;47.50;20.43;;;;;;;4.16;100.00;101037.59;1719268;83;21103;-65
2022/11/06 03:28:57;;;;;;;45.38;19.57;;;;;;;4.12;100.00;101031.95;1719184;83;21045;-65
2022/11/06 03:31:38;;;;;;;53.05;20.30;;;;;;;4.21;100.00;101034.59;1719615;83;21083;-67
2022/11/06 03:34:12;;;;;;;48.42;19.52;;;;;;;4.15;100.00;101025.00;1719335;83;21169;-66
2022/11/06 03:36:43;;;;;;;47.75;20.40;;;;;;;4.22;100.00;101026.34;1719274;83;21047;-65
2022/11/06 03:39:18;;;;;;;47.08;19.85;;;;;;;4.27;100.00;101030.69;1719125;83;21063;-66
2022/11/06 03:41:50;;;;;;;43.17;17.62;;;;;;;4.28;100.00;101032.45;1719045;83;21039;-66
2022/11/06 03:44:19;;;;;;;50.60;19.82;;;;;;;4.28;100.00;101028.53;1719132;83;21035;-65
2022/11/06 03:46:55;;;;;;;56.37;20.62;;;;;;;4.18;100.00;101026.74;1714591;83;21159;-65
2022/11/06 03:49:27;;;;;;;49.67;19.98;;;;;;;4.13;100.00;101025.86;1718807;83;21084;-65
2022/11/06 03:52:11;;;;;;;47.10;20.48;;;;;;;4.31;100.00;101028.53;1719100;83;21040;-66
2022/11/06 03:54:47;;;;;;;51.13;20.57;;;;;;;4.28;100.00;101025.03;1718637;83;21076;-66
2022/11/06 03:57:29;;;;;;;58.95;21.87;;;;;;;4.24;100.00;101025.47;1690610;83;21087;-66
2022/11/06 03:59:58;;;;;;;51.28;20.02;;;;;;;4.23;100.00;101021.55;1719319;83;21183;-65
2022/11/06 04:02:25;;;;;;;52.80;20.05;;;;;;;4.15;100.00;101029.35;1719196;83;22124;-66
2022/11/06 04:04:56;;;;;;;51.18;21.77;;;;;;;4.06;100.00;101025.41;1719071;83;21036;-66
2022/11/06 04:07:31;;;;;;;66.57;22.82;;;;;;;4.04;100.00;101027.13;1718910;83;21028;-67
2022/11/06 04:15:44;;;;;;;56.42;22.87;;;;;;;4.08;100.00;101027.15;1719309;83;21005;-65
2022/11/06 04:18:13;;;;;;;58.33;21.95;;;;;;;4.12;100.00;101018.92;1718641;83;21023;-65
2022/11/06 07:06:10;;;;;;;98.93;30.93;;;;;;;2.00;100.00;101105.55;1771652;79;23069;-89
2022/11/06 07:08:37;;;;;;;95.92;31.95;;;;;;;2.65;100.00;101106.81;1742621;80;21028;-91
2022/11/06 07:11:07;;;;;;;118.80;34.53;;;;;;;2.96;100.00;101094.11;1746512;81;22456;-90
2022/11/06 07:13:35;;;;;;;95.35;32.83;;;;;;;3.11;100.00;101105.10;1748685;81;21599;-88
2022/11/06 07:16:07;;;;;;;115.50;37.33;;;;;;;3.15;100.00;101102.55;1730773;81;21116;-89
2022/11/06 07:18:35;;;;;;;97.35;33.88;;;;;;;3.27;100.00;101101.77;1755160;81;21613;-89
2022/11/06 07:21:07;;;;;;;93.27;32.17;;;;;;;3.43;100.00;101094.96;1739969;80;21040;-90
2022/11/06 07:23:34;;;;;;;85.92;31.68;;;;;;;3.43;100.00;101094.96;1754613;80;21160;-90
2022/11/06 07:26:03;;;;;;;89.15;33.80;;;;;;;3.44;100.00;101103.20;1748931;81;21227;-92
2022/11/06 07:28:31;;;;;;;92.37;34.65;;;;;;;3.39;100.00;101108.81;1758466;80;21081;-92
2022/11/06 07:31:01;;;;;;;78.50;31.97;;;;;;;3.43;100.00;101113.19;1745011;80;21026;-92
2022/11/06 07:33:28;;;;;;;85.10;31.57;;;;;;;3.41;100.00;101107.09;1749329;80;21015;-92
2022/11/06 07:35:55;;;;;;;74.25;29.45;;;;;;;3.37;100.00;101115.73;1764016;81;21186;-92
2022/11/06 07:38:23;;;;;;;94.15;32.20;;;;;;;3.43;100.00;101108.39;1760749;81;21613;-90
2022/11/06 07:40:53;;;;;;;76.62;30.10;;;;;;;3.41;100.00;101105.79;1749395;81;21076;-91
2022/11/06 07:43:23;;;;;;;73.83;30.65;;;;;;;3.50;100.00;101112.38;1746690;80;21513;-90
2022/11/06 07:45:50;;;;;;;69.87;24.12;;;;;;;3.50;100.00;101111.07;1762751;80;21141;-91
2022/11/06 07:48:20;;;;;;;64.82;25.68;;;;;;;3.40;100.00;101107.94;1762903;81;21132;-92
2022/11/06 07:50:49;;;;;;;69.35;28.85;;;;;;;3.51;100.00;101111.50;1748888;80;21076;-92
2022/11/06 07:53:19;;;;;;;62.00;27.67;;;;;;;3.68;100.00;101104.23;1754997;80;21511;-91
2022/11/06 07:55:53;;;;;;;70.87;26.25;;;;;;;3.71;100.00;101116.86;1757572;81;21105;-90
2022/11/06 07:58:20;;;;;;;66.37;28.27;;;;;;;3.74;100.00;101118.61;1733147;81;21104;-89
2022/11/06 08:00:51;;;;;;;64.12;28.77;;;;;;;3.73;100.00;101111.23;1745938;80;21849;-91
2022/11/06 08:03:18;;;;;;;;;;;;;;;3.92;100.00;101116.13;1753235;81;21641;-91
2022/11/06 08:05:46;;;;;;;65.62;27.13;;;;;;;3.91;100.00;101114.39;1753829;81;20130;-91
2022/11/06 08:08:12;;;;;;;58.40;26.05;;;;;;;3.94;100.00;101120.91;1752927;81;21135;-92
2022/11/06 08:10:42;;;;;;;62.73;27.07;;;;;;;4.01;100.00;101123.56;1749707;80;21050;-93
2022/11/06 08:13:15;;;;;;;52.27;24.52;;;;;;;4.03;100.00;101129.23;1764690;80;21117;-91
2022/11/06 08:15:42;;;;;;;62.15;26.20;;;;;;;4.10;100.00;101124.92;1766135;80;21088;-90
2022/11/06 08:18:11;;;;;;;55.60;25.97;;;;;;;4.04;100.00;101124.87;1753542;77;21182;-89
2022/11/06 08:20:38;;;;;;;60.78;25.65;;;;;;;4.10;100.00;101128.83;1735188;81;21100;-90
2022/11/06 08:23:07;;;;;;;51.08;22.10;;;;;;;4.01;100.00;101122.27;1746384;81;21109;-91
2022/11/06 08:25:33;;;;;;;57.48;25.45;;;;;;;4.02;100.00;101129.20;1752570;81;21366;-90
2022/11/06 08:28:01;;;;;;;63.02;27.62;;;;;;;4.00;100.00;101130.48;1719152;81;21085;-91
2022/11/06 08:30:28;;;;;;;62.88;27.35;;;;;;;4.10;100.00;101128.39;1753558;81;21045;-89
2022/11/06 08:33:04;;;;;;;55.75;26.40;;;;;;;4.15;100.00;101128.42;1759635;81;21020;-88
2022/11/06 08:35:36;;;;;;;62.05;25.27;;;;;;;4.11;100.00;101131.86;1752883;81;21033;-88
2022/11/06 08:38:03;;;;;;;56.48;27.27;;;;;;;4.12;100.00;101134.49;1714082;81;21392;-90
2022/11/06 08:40:32;;;;;;;69.72;28.10;;;;;;;4.14;100.00;101134.48;1748155;81;21124;-91
2022/11/06 08:43:01;;;;;;;65.32;28.02;;;;;;;4.16;100.00;101137.56;1711477;81;21081;-92
2022/11/06 08:45:27;;;;;;;59.75;26.80;;;;;;;4.25;100.00;101139.32;1755831;80;21167;-91
2022/11/06 08:47:54;;;;;;;67.00;28.17;;;;;;;4.30;100.00;101138.94;1743319;81;21026;-92
2022/11/06 08:50:22;;;;;;;56.18;25.82;;;;;;;4.32;100.00;101131.09;1755230;81;21132;-91
2022/11/06 08:52:50;;;;;;;69.40;29.63;;;;;;;4.43;100.00;101137.23;1742649;81;21570;-89
2022/11/06 08:55:17;;;;;;;64.82;26.65;;;;;;;4.52;100.00;101136.41;1748001;80;21060;-92
2022/11/06 08:57:46;;;;;;;59.13;27.32;;;;;;;4.40;100.00;101104.19;1746725;81;21087;-93
2022/11/06 09:00:15;;;;;;;61.40;27.05;;;;;;;4.65;100.00;101127.77;1758443;81;21066;-92
2022/11/06 09:02:42;;;;;;;71.93;28.03;;;;;;;4.70;100.00;101131.26;1743112;80;20991;-92
2022/11/06 09:05:11;;;;;;;69.00;28.65;;;;;;;4.78;100.00;101136.05;1742469;80;21169;-91
2022/11/06 09:07:39;;;;;;;63.50;28.30;;;;;;;4.82;100.00;101132.59;1760072;80;21136;-93
2022/11/06 09:10:08;;;;;;;57.25;25.97;;;;;;;4.80;100.00;101121.27;1755092;81;21085;-91
2022/11/06 09:12:37;;;;;;;67.92;29.05;;;;;;;4.99;100.00;101133.05;1762678;80;21061;-90
2022/11/06 09:15:05;;;;;;;60.55;28.92;;;;;;;4.95;100.00;101128.72;1739072;81;21438;-93
2022/11/06 09:17:32;;;;;;;63.25;27.17;;;;;;;4.75;100.00;101133.44;1755544;80;21085;-92
2022/11/06 09:20:00;;;;;;;64.03;28.62;;;;;;;4.78;100.00;101137.35;1741422;80;21085;-92
2022/11/06 09:22:30;;;;;;;58.40;25.72;;;;;;;4.82;100.00;101127.80;1714719;81;21074;-91
2022/11/06 09:24:56;;;;;;;59.48;24.77;;;;;;;4.87;100.00;101127.81;1757549;81;21156;-92
2022/11/06 09:27:25;;;;;;;66.65;29.65;;;;;;;4.98;100.00;101126.11;1740851;81;21145;-92
2022/11/06 09:29:52;;;;;;;65.20;27.37;;;;;;;4.84;100.00;101132.16;1750066;81;21040;-93
2022/11/06 09:32:19;;;;;;;64.92;27.20;;;;;;;4.86;100.00;101131.31;1762179;80;21120;-91
2022/11/06 09:34:46;;;;;;;60.58;27.10;;;;;;;4.89;100.00;101132.61;1759054;80;21368;-92
2022/11/06 09:37:12;;;;;;;63.85;28.30;;;;;;;4.83;100.00;101129.13;1748241;81;21037;-93
2022/11/06 09:39:39;;;;;;;69.80;29.48;;;;;;;4.69;100.00;101134.72;1739408;81;21093;-92
2022/11/06 09:42:14;;;;;;;72.90;30.35;;;;;;;4.66;100.00;101130.80;1762323;80;21030;-91
2022/11/06 09:44:52;;;;;;;65.45;26.33;;;;;;;4.69;100.00;101126.89;1728740;81;21135;-89
2022/11/06 09:47:24;;;;;;;68.42;28.65;;;;;;;4.84;100.00;101126.94;1712526;81;21107;-89
2022/11/06 09:49:53;;;;;;;56.88;25.82;;;;;;;4.81;100.00;101141.30;1714675;81;21088;-90
2022/11/06 09:52:40;;;;;;;64.15;28.80;;;;;;;4.78;100.00;101132.13;1718793;82;21162;-92
2022/11/06 09:55:17;;;;;;;69.65;28.17;;;;;;;4.79;100.00;101123.45;1717377;82;21124;-91
2022/11/06 14:24:55;;;;;;;133.13;48.80;;;;;;;3.39;100.00;101052.83;1849042;74;88382;-66
2022/11/06 14:27:27;;;;;;;112.62;47.03;;;;;;;3.78;100.00;101048.30;1623210;87;21160;-67
2022/11/06 14:30:27;;;;;;;94.05;39.20;;;;;;;3.93;100.00;101039.70;1642089;87;21208;-67
2022/11/06 14:32:57;;;;;;;105.05;44.03;;;;;;;4.03;100.00;101045.81;1703610;82;21044;-67
2022/11/06 14:35:36;;;;;;;108.00;48.50;;;;;;;4.16;100.00;101041.51;1690547;84;21119;-67
2022/11/06 14:38:31;;;;;;;91.97;38.15;;;;;;;4.18;100.00;101040.64;1719561;82;21052;-67
2022/11/06 14:40:59;;;;;;;110.05;47.20;;;;;;;4.23;100.00;101038.49;1722658;82;21099;-67
2022/11/06 14:43:30;;;;;;;86.47;38.48;;;;;;;4.22;100.00;101029.81;1719308;82;21068;-67
2022/11/06 14:46:08;;;;;;;89.50;39.15;;;;;;;4.19;100.00;101034.58;1721237;82;21014;-67
2022/11/06 14:48:41;;;;;;;82.10;37.05;;;;;;;4.23;100.00;101031.53;1723521;82;21097;-67
2022/11/06 14:51:09;;;;;;;86.57;37.95;;;;;;;4.24;100.00;101027.22;1716232;82;21037;-67
2022/11/06 14:53:39;;;;;;;76.62;35.05;;;;;;;4.35;100.00;101032.90;1720819;82;21064;-65
2022/11/06 14:56:08;;;;;;;77.83;34.60;;;;;;;4.32;100.00;101019.83;1732251;82;21261;-67
2022/11/06 14:58:43;;;;;;;70.35;33.35;;;;;;;4.38;100.00;101022.47;1725033;82;20982;-67
2022/11/06 15:01:13;;;;;;;79.22;37.58;;;;;;;4.39;100.00;101019.01;1715927;82;21013;-67
2022/11/06 15:03:54;;;;;;;77.70;36.88;;;;;;;4.38;100.00;101017.25;1730544;82;21032;-66
2022/11/06 15:06:40;;;;;;;79.50;36.05;;;;;;;4.38;100.00;101017.69;1726827;82;20962;-67
2022/11/06 15:09:16;;;;;;;84.67;37.67;;;;;;;4.44;100.00;101010.30;1714703;82;21236;-67
2022/11/06 15:11:59;;;;;;;82.90;39.27;;;;;;;4.48;100.00;101019.87;1722555;82;21584;-67
2022/11/06 15:14:31;;;;;;;97.55;45.25;;;;;;;4.48;100.00;101019.44;1724517;82;21014;-67
2022/11/06 15:17:12;;;;;;;88.85;40.03;;;;;;;4.53;100.00;101022.05;1721177;82;21049;-67
2022/11/06 15:20:14;;;;;;;89.47;39.05;;;;;;;4.55;100.00;101016.41;1698151;82;21722;-67
2022/11/06 15:22:52;;;;;;;101.58;45.03;;;;;;;4.51;100.00;101019.87;1723941;81;21340;-66
2022/11/06 15:25:26;;;;;;;105.17;40.95;;;;;;;4.52;100.00;101019.02;1717900;82;21080;-67
2022/11/06 15:28:12;;;;;;;105.58;43.25;;;;;;;4.44;100.00;101007.28;1729675;82;21020;-67
2022/11/06 15:30:49;;;;;;;111.08;44.83;;;;;;;4.43;100.00;101015.95;1727476;82;21041;-67
2022/11/06 15:33:25;;;;;;;125.30;50.65;;;;;;;4.37;100.00;101014.22;1727026;82;21123;-67
2022/11/06 15:35:55;;;;;;;164.13;57.88;;;;;;;4.39;100.00;101019.41;1724777;82;21378;-67
2022/11/06 15:38:23;;;;;;;127.10;51.77;;;;;;;4.44;100.00;101012.91;1719228;82;21052;-66
2022/11/06 15:40:51;;;;;;;125.07;50.45;;;;;;;4.37;100.00;101015.52;1715916;82;21065;-66
2022/11/06 15:43:30;;;;;;;130.07;53.17;;;;;;;4.37;100.00;101012.91;1715350;82;21447;-68
2022/11/06 15:46:25;;;;;;;137.85;54.15;;;;;;;4.41;100.00;101013.77;1721617;82;21005;-67
2022/11/06 15:49:17;;;;;;;126.92;51.05;;;;;;;4.46;100.00;101011.17;1718966;81;21238;-67
2022/11/06 15:52:01;;;;;;;107.90;43.70;;;;;;;4.43;100.00;101013.78;1724178;82;21579;-67
2022/11/06 15:54:39;;;;;;;150.12;59.80;;;;;;;4.38;100.00;101006.81;1719029;82;21041;-67
2022/11/06 15:57:18;;;;;;;237.50;91.22;;;;;;;4.45;100.00;101004.23;1723301;82;21003;-67
2022/11/06 15:59:46;;;;;;;217.28;84.05;;;;;;;4.46;100.00;100996.83;1723062;82;27225;-68
2022/11/06 16:02:18;;;;;;;122.53;51.33;;;;;;;4.39;100.00;100987.71;1719453;82;21105;-67
2022/11/06 16:04:45;;;;;;;117.20;47.70;;;;;;;4.39;100.00;100996.84;1720101;82;21667;-67
2022/11/06 16:07:12;;;;;;;121.72;51.65;;;;;;;4.34;100.00;100993.77;1728631;81;21615;-69
2022/11/06 16:09:40;;;;;;;119.10;50.33;;;;;;;4.40;100.00;100989.44;1718655;82;21084;-68
2022/11/06 16:12:13;;;;;;;141.30;55.95;;;;;;;4.44;100.00;100987.72;1671855;84;21633;-67
2022/11/06 16:14:44;;;;;;;114.97;48.78;;;;;;;4.47;100.00;100985.11;1686056;84;21211;-66
2022/11/06 16:17:24;;;;;;;125.65;52.70;;;;;;;4.44;100.00;100982.91;1687772;84;21740;-67
2022/11/06 16:19:51;;;;;;;126.45;51.95;;;;;;;4.52;100.00;100983.81;1689354;84;21531;-67
2022/11/06 16:22:23;;;;;;;99.42;42.70;;;;;;;4.51;100.00;100980.74;1686133;84;21073;-67
2022/11/06 16:24:58;;;;;;;121.92;50.50;;;;;;;4.51;100.00;100979.44;1691570;84;21100;-67
2022/11/06 16:27:24;;;;;;;115.10;51.08;;;;;;;4.50;100.00;100973.80;1719198;81;21174;-68
2022/11/06 16:29:56;;;;;;;96.92;43.10;;;;;;;4.46;100.00;100982.48;1719162;82;21032;-67
2022/11/06 16:32:30;;;;;;;105.52;46.77;;;;;;;4.46;100.00;100979.87;1718979;82;21020;-67
2022/11/06 16:34:58;;;;;;;109.63;48.83;;;;;;;4.43;100.00;100977.27;1688276;84;21028;-68
2022/11/06 16:37:35;;;;;;;115.50;51.48;;;;;;;4.44;100.00;100976.39;1719357;82;20993;-67
2022/11/06 16:40:05;;;;;;;103.72;45.33;;;;;;;4.41;100.00;100969.00;1726327;82;21659;-67
2022/11/06 16:42:37;;;;;;;92.60;42.85;;;;;;;4.46;100.00;100975.52;1718641;82;21274;-67
2022/11/06 16:45:18;;;;;;;101.27;46.25;;;;;;;4.47;100.00;100980.33;1720207;82;21038;-67
2022/11/06 16:48:09;;;;;;;93.30;43.05;;;;;;;4.49;100.00;100975.98;1720470;82;21159;-67
2022/11/06 16:50:50;;;;;;;89.07;40.38;;;;;;;4.54;100.00;100978.16;1718342;82;24844;-67
2022/11/06 16:53:21;;;;;;;99.40;44.08;;;;;;;4.52;100.00;100977.29;1721452;82;21109;-67
2022/11/06 16:55:58;;;;;;;85.95;39.67;;;;;;;4.60;100.00;100984.27;1722128;82;21210;-67
2022/11/06 16:58:25;;;;;;;88.33;38.90;;;;;;;4.56;100.00;100989.47;1725916;82;21504;-67
2022/11/06 17:01:02;;;;;;;91.82;41.20;;;;;;;4.53;100.00;100985.13;1731869;82;21080;-67
2022/11/06 17:03:39;;;;;;;76.95;35.58;;;;;;;4.56;100.00;100977.73;1731565;82;21191;-67
2022/11/06 17:06:08;;;;;;;74.35;30.30;;;;;;;4.59;100.00;100980.34;1730997;82;21878;-67
2022/11/06 17:08:37;;;;;;;74.07;31.42;;;;;;;4.51;100.00;100983.35;1726612;82;21038;-67
2022/11/06 17:11:20;;;;;;;71.30;33.40;;;;;;;4.51;100.00;100982.95;1724063;82;21033;-67
2022/11/06 17:13:48;;;;;;;58.87;24.67;;;;;;;4.59;100.00;100985.55;1720441;82;21057;-67
2022/11/06 17:16:18;;;;;;;66.07;30.72;;;;;;;4.61;100.00;100995.12;1687024;84;21060;-68
2022/11/06 17:18:44;;;;;;;66.45;31.48;;;;;;;4.74;100.00;100987.29;1719842;81;21115;-68
2022/11/06 17:21:23;;;;;;;62.27;29.70;;;;;;;4.91;100.00;100996.45;1721580;82;21182;-67
2022/11/06 17:23:54;;;;;;;61.97;30.50;;;;;;;4.91;100.00;101002.98;1667388;84;21052;-67
2022/11/06 17:26:29;;;;;;;57.23;28.80;;;;;;;4.91;100.00;100996.45;1664070;84;21104;-67
2022/11/06 17:28:56;;;;;;;54.95;27.35;;;;;;;4.71;100.00;100997.30;1641017;84;21095;-67
2022/11/06 17:31:23;;;;;;;62.10;30.23;;;;;;;4.64;100.00;101005.98;1665661;84;21243;-67
2022/11/06 17:33:51;;;;;;;54.25;29.32;;;;;;;4.70;100.00;101002.53;1715961;82;21045;-67
2022/11/06 17:36:25;;;;;;;58.60;28.12;;;;;;;4.70;100.00;100998.18;1723390;82;21052;-67
2022/11/06 17:38:54;;;;;;;52.05;24.77;;;;;;;4.68;100.00;100996.44;1674087;84;21057;-67
2022/11/06 17:41:31;;;;;;;60.38;27.67;;;;;;;4.72;100.00;101001.66;1722552;82;21632;-67
2022/11/06 17:44:09;;;;;;;54.23;27.85;;;;;;;4.63;100.00;101001.66;1731533;81;21815;-67
2022/11/06 17:46:39;;;;;;;55.52;27.00;;;;;;;4.70;100.00;101002.53;1727234;82;21147;-67
2022/11/06 17:49:06;;;;;;;61.15;28.50;;;;;;;4.76;100.00;101003.83;1732534;82;21124;-67
2022/11/06 17:54:19;;;;;;;59.23;30.55;;;;;;;4.73;100.00;101003.39;1722059;82;21120;-67
2022/11/06 17:56:46;;;;;;;60.40;28.65;;;;;;;4.67;100.00;101006.02;1716822;82;21785;-67
2022/11/06 17:59:13;;;;;;;69.32;31.90;;;;;;;4.79;100.00;101002.55;1727381;82;21041;-67
2022/11/06 18:01:40;;;;;;;53.78;27.27;;;;;;;4.80;100.00;101005.12;1716326;82;21522;-67
2022/11/06 18:04:08;;;;;;;63.48;31.80;;;;;;;4.84;100.00;101013.41;1725843;82;21128;-67
2022/11/06 18:06:37;;;;;;;61.20;26.48;;;;;;;4.82;100.00;101007.31;1725443;82;21041;-67
2022/11/06 18:09:06;;;;;;;63.02;30.15;;;;;;;4.78;100.00;101014.69;1730018;82;21897;-67
2022/11/06 18:11:32;;;;;;;68.60;31.23;;;;;;;4.62;100.00;101012.94;1720871;82;21041;-67
2022/11/06 18:14:00;;;;;;;68.25;32.17;;;;;;;4.66;100.00;101006.86;1723950;82;21072;-67
2022/11/06 18:16:29;;;;;;;65.25;30.82;;;;;;;4.66;100.00;101004.25;1718906;82;21048;-67
2022/11/06 18:18:55;;;;;;;69.32;31.15;;;;;;;4.67;100.00;101000.80;1723214;82;21171;-67
